Time;durP1;ratioP1;P1;durP2;ratioP2;P2;SDS_P1;SDS_P2;PMS_P1;PMS_P2;Temp;Humidity;BMP_temperature;BMP_pressure;BME280_temperature;BME280_humidity;BME280_pressure;Samples;Min_cycle;Max_cycle;Signal;HPM_P1;HPM_P2
2022/05/17 00:00:07;;;;;;;4.12;3.60;;;;;;;23.08;47.56;100818.62;1723297;83;21109;-76
2022/05/17 00:02:33;;;;;;;4.97;3.92;;;;;;;23.08;47.55;100820.02;1723122;83;21164;-76
2022/05/17 00:05:00;;;;;;;4.33;3.40;;;;;;;23.07;47.56;100820.58;1693469;83;21042;-76
2022/05/17 00:07:26;;;;;;;5.50;3.80;;;;;;;23.07;47.53;100814.22;1723883;81;20946;-76
2022/05/17 00:09:53;;;;;;;3.90;3.30;;;;;;;23.08;47.57;100810.30;1724013;83;21120;-78
2022/05/17 00:12:19;;;;;;;4.97;3.60;;;;;;;23.07;47.58;100810.88;1724244;83;21152;-76
2022/05/17 00:14:45;;;;;;;4.20;3.50;;;;;;;23.07;47.61;100805.32;1724076;83;21326;-77
2022/05/17 00:17:12;;;;;;;4.58;3.60;;;;;;;23.07;47.61;100803.94;1724194;83;20966;-76
2022/05/17 00:19:38;;;;;;;5.92;3.98;;;;;;;23.08;47.61;100801.97;1724017;83;21077;-76
2022/05/17 00:22:05;;;;;;;4.40;3.58;;;;;;;23.07;47.61;100797.56;1723930;83;21065;-77
2022/05/17 00:24:31;;;;;;;5.08;3.20;;;;;;;23.06;47.61;100795.36;1724257;83;21105;-76
2022/05/17 00:26:57;;;;;;;4.03;3.50;;;;;;;23.07;47.63;100795.61;1724343;83;21289;-77
2022/05/17 00:29:25;;;;;;;4.30;3.85;;;;;;;23.07;47.63;100797.00;1723794;83;21081;-77
2022/05/17 00:31:51;;;;;;;3.98;3.52;;;;;;;23.07;47.66;100793.41;1724227;83;21021;-76
2022/05/17 00:34:17;;;;;;;4.55;3.98;;;;;;;23.07;47.66;100798.38;1724306;83;21073;-76
2022/05/17 00:36:43;;;;;;;4.20;3.40;;;;;;;23.07;47.69;100798.95;1724069;83;21046;-76
2022/05/17 00:39:10;;;;;;;5.65;3.75;;;;;;;23.07;47.70;100794.79;1724267;83;21294;-76
2022/05/17 00:41:36;;;;;;;3.83;3.42;;;;;;;23.06;47.71;100805.08;1693454;83;20914;-76
2022/05/17 00:47:04;;;;;;;4.17;3.77;;;;;;;23.06;47.71;100813.40;1724244;83;21093;-77
2022/05/17 00:49:36;;;;;;;6.58;3.85;;;;;;;23.07;47.70;100816.42;1723806;83;21501;-76
2022/05/17 00:52:07;;;;;;;3.52;3.22;;;;;;;23.06;47.69;100815.36;1724304;83;21069;-77
2022/05/17 00:54:33;;;;;;;4.10;3.10;;;;;;;23.06;47.69;100818.95;1724017;83;21539;-77
2022/05/17 00:57:05;;;;;;;3.87;3.50;;;;;;;23.05;47.69;100814.54;1693507;83;21142;-77
2022/05/17 00:59:31;;;;;;;4.28;3.45;;;;;;;23.04;47.69;100811.52;1724327;83;21611;-76
2022/05/17 01:01:57;;;;;;;4.33;3.45;;;;;;;23.05;47.71;100812.34;1723821;83;21116;-77
2022/05/17 01:04:24;;;;;;;3.92;3.30;;;;;;;23.06;47.72;100808.42;1693768;83;21065;-76
2022/05/17 01:06:55;;;;;;;4.40;3.67;;;;;;;23.05;47.70;100808.98;1723991;81;21033;-76
2022/05/17 01:09:27;;;;;;;3.85;3.37;;;;;;;23.04;47.73;100810.13;1723858;83;21484;-77
2022/05/17 01:11:54;;;;;;;3.90;3.50;;;;;;;23.05;47.72;100801.23;1724114;83;21093;-77
2022/05/17 01:17:06;;;;;;;5.08;3.83;;;;;;;23.04;47.75;100796.25;1724096;83;21470;-77
2022/05/17 01:19:32;;;;;;;5.05;3.70;;;;;;;23.05;47.74;100798.45;1724139;83;21141;-76
2022/05/17 01:21:58;;;;;;;5.17;3.83;;;;;;;23.04;47.76;100789.92;1724201;83;21127;-77
2022/05/17 01:24:28;;;;;;;5.28;3.40;;;;;;;23.05;47.77;100791.52;1724125;83;21077;-76
2022/05/17 01:27:05;;;;;;;3.55;3.25;;;;;;;23.04;47.77;100793.48;1724039;83;21053;-76
2022/05/17 01:29:38;;;;;;;4.08;3.67;;;;;;;23.04;47.75;100792.09;1687585;84;21042;-77
2022/05/17 01:32:06;;;;;;;4.20;3.52;;;;;;;23.04;47.76;100780.20;1723690;83;21639;-76
2022/05/17 01:34:32;;;;;;;4.03;3.62;;;;;;;23.04;47.76;100784.37;1724237;83;21081;-77
2022/05/17 01:36:58;;;;;;;4.25;3.70;;;;;;;23.03;47.75;100775.80;1693062;83;21038;-78
2022/05/17 01:39:24;;;;;;;4.17;2.98;;;;;;;23.04;47.73;100771.28;1724091;83;21132;-76
2022/05/17 01:41:50;;;;;;;5.42;3.65;;;;;;;23.03;47.72;100759.15;1723997;83;21840;-76
2022/05/17 01:44:16;;;;;;;4.97;3.62;;;;;;;23.03;47.71;100773.84;1723925;83;21500;-77
2022/05/17 01:46:43;;;;;;;3.90;3.40;;;;;;;23.03;47.71;100776.61;1693818;83;21026;-76
2022/05/17 01:49:09;;;;;;;4.60;3.58;;;;;;;23.04;47.72;100785.75;1724342;83;21639;-77
2022/05/17 01:51:35;;;;;;;4.95;3.60;;;;;;;23.04;47.72;100784.37;1723720;83;21133;-76
2022/05/17 01:54:02;;;;;;;4.50;3.25;;;;;;;23.03;47.76;100780.78;1723968;83;21038;-76
2022/05/17 01:56:28;;;;;;;3.80;3.10;;;;;;;23.03;47.76;100776.61;1724170;83;21584;-76
2022/05/17 01:58:57;;;;;;;5.42;3.55;;;;;;;23.03;47.75;100787.72;1723661;83;21006;-76
2022/05/17 02:01:23;;;;;;;5.30;3.10;;;;;;;23.03;47.76;100781.34;1723918;83;21030;-77
2022/05/17 02:03:50;;;;;;;4.10;3.33;;;;;;;23.03;47.73;100786.33;1723988;83;21069;-77
2022/05/17 02:06:16;;;;;;;5.30;3.30;;;;;;;23.04;47.72;100787.14;1723859;81;21498;-76
2022/05/17 02:08:42;;;;;;;3.55;3.25;;;;;;;23.03;47.76;100776.61;1724092;83;21074;-77
2022/05/17 02:11:08;;;;;;;4.95;3.60;;;;;;;23.04;47.75;100774.66;1723624;83;21037;-76
2022/05/17 02:13:34;;;;;;;5.35;3.27;;;;;;;23.03;47.71;100773.02;1723934;83;20986;-76
2022/05/17 02:16:05;;;;;;;4.62;3.33;;;;;;;23.04;47.76;100770.50;1724457;83;21027;-76
2022/05/17 02:18:31;;;;;;;3.92;3.25;;;;;;;23.02;47.73;100763.88;1723113;83;21101;-77
2022/05/17 02:21:04;;;;;;;4.20;3.45;;;;;;;23.02;47.73;100763.88;1723677;83;21094;-77
2022/05/17 02:23:30;;;;;;;4.08;3.42;;;;;;;23.03;47.75;100761.92;1724111;83;21062;-76
2022/05/17 02:25:56;;;;;;;4.15;3.50;;;;;;;23.03;47.75;100770.25;1723960;83;21018;-76
2022/05/17 02:28:22;;;;;;;5.15;3.37;;;;;;;23.02;47.78;100768.61;1723816;83;21552;-76
2022/05/17 02:30:49;;;;;;;4.47;3.42;;;;;;;23.02;47.77;100773.59;1717087;83;22059;-77
2022/05/17 02:33:16;;;;;;;3.95;3.22;;;;;;;23.03;47.77;100766.09;1706467;83;21544;-78
2022/05/17 02:35:42;;;;;;;4.15;3.60;;;;;;;23.02;47.77;100761.11;1706200;83;21032;-76
2022/05/17 02:38:08;;;;;;;5.15;3.25;;;;;;;23.02;47.78;100766.66;1686150;84;21058;-76
2022/05/17 02:40:35;;;;;;;5.75;3.22;;;;;;;23.02;47.78;100763.88;1706365;84;21494;-77
2022/05/17 02:43:02;;;;;;;4.25;3.30;;;;;;;23.02;47.74;100768.05;1685950;84;21205;-78
2022/05/17 02:45:28;;;;;;;6.47;3.85;;;;;;;23.02;47.74;100770.81;1706110;83;21678;-79
2022/05/17 02:47:54;;;;;;;3.62;3.05;;;;;;;23.01;47.75;100771.95;1706311;84;20995;-77
2022/05/17 02:50:20;;;;;;;3.83;3.42;;;;;;;23.01;47.77;100766.41;1685765;84;21050;-76
2022/05/17 02:52:47;;;;;;;3.60;3.20;;;;;;;23.02;47.74;100775.55;1706644;83;21079;-76
2022/05/17 02:55:13;;;;;;;3.87;3.27;;;;;;;23.02;47.73;100779.14;1706504;83;21135;-77
2022/05/17 02:57:39;;;;;;;3.58;3.25;;;;;;;23.02;47.71;100779.71;1706146;83;22268;-76
2022/05/17 03:00:10;;;;;;;4.08;3.50;;;;;;;23.02;47.67;100779.71;1706346;83;21137;-77
2022/05/17 03:02:36;;;;;;;4.42;3.55;;;;;;;23.02;47.66;100768.61;1706689;84;21110;-76
2022/05/17 03:05:02;;;;;;;4.70;3.35;;;;;;;23.01;47.65;100774.73;1686073;84;21031;-76
2022/05/17 03:07:28;;;;;;;4.12;3.05;;;;;;;23.02;47.64;100772.78;1706122;82;21548;-76
2022/05/17 03:09:54;;;;;;;5.03;3.17;;;;;;;23.01;47.62;100776.69;1706324;84;21078;-76
2022/05/17 03:12:21;;;;;;;4.87;4.00;;;;;;;23.01;47.62;100777.51;1706177;84;21100;-76
2022/05/17 03:14:47;;;;;;;4.53;3.45;;;;;;;23.02;47.59;100774.16;1706219;83;21086;-77
2022/05/17 03:17:15;;;;;;;3.90;3.05;;;;;;;23.02;47.59;100775.55;1706388;84;21046;-77
2022/05/17 03:19:42;;;;;;;4.30;3.58;;;;;;;23.01;47.58;100775.30;1705989;84;21249;-76
2022/05/17 03:22:09;;;;;;;4.62;3.60;;;;;;;23.02;47.57;100775.55;1706113;83;21655;-77
2022/05/17 03:24:35;;;;;;;4.00;3.02;;;;;;;23.01;47.54;100772.53;1686355;83;21078;-76
2022/05/17 03:27:01;;;;;;;4.30;3.58;;;;;;;23.02;47.53;100770.00;1706113;83;21145;-77
2022/05/17 03:29:28;;;;;;;4.22;3.30;;;;;;;23.01;47.53;100769.75;1706342;83;21122;-77
2022/05/17 03:31:54;;;;;;;4.12;3.50;;;;;;;23.01;47.53;100765.59;1715249;83;21249;-77
2022/05/17 03:34:20;;;;;;;3.62;3.05;;;;;;;23.01;47.50;100764.20;1718938;83;21082;-77
2022/05/17 03:36:46;;;;;;;3.77;3.15;;;;;;;23.02;47.51;100770.00;1719064;83;21084;-77
2022/05/17 03:39:13;;;;;;;4.92;3.08;;;;;;;23.00;47.51;100766.16;1719092;83;21105;-77
2022/05/17 03:41:46;;;;;;;4.53;3.45;;;;;;;23.01;47.52;100776.12;1718762;83;21074;-76
2022/05/17 03:44:12;;;;;;;3.62;3.22;;;;;;;23.01;47.52;100769.19;1719255;83;21568;-78
2022/05/17 03:46:38;;;;;;;3.87;3.15;;;;;;;23.02;47.52;100779.71;1719057;83;21077;-76
2022/05/17 03:49:04;;;;;;;3.87;3.47;;;;;;;23.02;47.52;100779.71;1718885;83;21128;-76
2022/05/17 03:51:30;;;;;;;4.30;3.80;;;;;;;23.01;47.54;100777.51;1718986;83;20910;-78
2022/05/17 03:53:57;;;;;;;3.85;3.42;;;;;;;23.02;47.56;100785.27;1719133;83;21049;-77
2022/05/17 03:56:23;;;;;;;5.25;3.90;;;;;;;23.01;47.61;100785.02;1719061;83;21155;-76
2022/05/17 03:58:49;;;;;;;6.87;3.72;;;;;;;22.99;47.69;100785.94;1719030;83;21570;-78
2022/05/17 04:01:16;;;;;;;4.22;3.75;;;;;;;22.99;47.75;100795.66;1719123;83;21058;-77
2022/05/17 04:03:43;;;;;;;6.62;4.30;;;;;;;22.96;47.80;100797.69;1719105;83;21200;-78
2022/05/17 04:06:09;;;;;;;13.25;5.70;;;;;;;22.94;47.84;100798.61;1719145;82;21531;-78
2022/05/17 04:08:40;;;;;;;9.80;5.65;;;;;;;22.91;47.84;100799.28;1719192;83;21234;-79
2022/05/17 04:11:07;;;;;;;11.93;5.55;;;;;;;22.86;47.90;100791.95;1698017;83;21133;-77
2022/05/17 04:13:34;;;;;;;10.68;6.45;;;;;;;22.82;47.96;100797.12;1719231;83;21074;-77
2022/05/17 04:16:01;;;;;;;20.23;7.25;;;;;;;22.81;47.99;100799.64;1719091;83;21532;-78
2022/05/17 04:18:27;;;;;;;12.85;6.17;;;;;;;22.77;48.02;100800.88;1718864;83;21045;-78
2022/05/17 04:20:59;;;;;;;15.60;5.70;;;;;;;22.74;48.04;100802.34;1718943;83;21943;-77
2022/05/17 04:23:25;;;;;;;13.28;5.33;;;;;;;22.71;48.11;100805.79;1718557;83;21113;-77
2022/05/17 04:25:51;;;;;;;14.23;5.65;;;;;;;22.69;48.17;100798.95;1717989;81;21028;-77
2022/05/17 04:28:17;;;;;;;11.55;5.75;;;;;;;22.68;48.19;100799.50;1709380;82;21080;-78
2022/05/17 04:30:44;;;;;;;12.85;5.90;;;;;;;22.67;48.21;100798.43;1716108;82;21084;-78
2022/05/17 04:33:11;;;;;;;16.32;8.88;;;;;;;22.67;48.23;100798.43;1722232;83;21638;-78
2022/05/17 04:35:38;;;;;;;14.98;6.35;;;;;;;22.64;48.28;100791.60;1721938;83;20988;-78
2022/05/17 04:38:05;;;;;;;18.27;8.50;;;;;;;22.58;48.41;100790.71;1681300;85;21062;-80
2022/05/17 04:40:31;;;;;;;11.70;7.60;;;;;;;22.55;48.50;100790.00;1683927;83;21686;-77
2022/05/17 04:43:04;;;;;;;15.70;9.65;;;;;;;22.51;48.59;100790.41;1730469;82;21073;-77
2022/05/17 04:45:30;;;;;;;11.05;7.47;;;;;;;22.48;48.72;100789.13;1713754;82;22309;-83
2022/05/17 04:47:59;;;;;;;13.48;7.95;;;;;;;22.47;48.82;100787.50;1706119;81;21037;-86
2022/05/17 04:50:26;;;;;;;17.62;8.58;;;;;;;22.45;48.91;100793.14;1710351;82;20994;-80
2022/05/17 04:52:52;;;;;;;17.92;9.63;;;;;;;22.45;48.98;100796.70;1714331;82;21088;-75
2022/05/17 04:55:19;;;;;;;18.60;8.43;;;;;;;22.46;49.05;100791.98;1711162;82;21057;-77
2022/05/17 04:57:45;;;;;;;19.62;9.13;;;;;;;22.45;49.17;100796.70;1705192;83;21771;-82
2022/05/17 05:00:17;;;;;;;12.30;9.20;;;;;;;22.49;49.26;100792.72;1707320;83;21068;-86
2022/05/17 05:02:45;;;;;;;19.73;8.10;;;;;;;22.50;49.31;100794.33;1687449;83;21082;-84
2022/05/17 05:05:12;;;;;;;15.38;7.25;;;;;;;22.52;49.41;100792.05;1700660;82;21034;-82
2022/05/17 05:07:40;;;;;;;18.85;8.33;;;;;;;22.54;49.45;100793.33;1698404;82;21567;-84
2022/05/17 05:10:07;;;;;;;29.48;16.20;;;;;;;22.56;49.51;100799.95;1660310;84;21197;-80
2022/05/17 05:12:36;;;;;;;21.52;11.78;;;;;;;22.55;49.65;100804.67;1664849;84;21144;-83
2022/05/17 05:15:03;;;;;;;16.17;10.03;;;;;;;22.54;49.74;100793.33;1707528;81;20957;-83
2022/05/17 05:17:34;;;;;;;27.15;14.20;;;;;;;22.53;49.76;100791.70;1701710;82;21072;-79
2022/05/17 05:20:01;;;;;;;18.25;11.22;;;;;;;22.55;49.82;100798.31;1696436;82;21058;-84
2022/05/17 05:22:29;;;;;;;14.10;8.63;;;;;;;22.53;49.88;100797.25;1705136;82;21128;-81
2022/05/17 05:24:55;;;;;;;24.43;10.80;;;;;;;22.53;49.99;100795.07;1714578;82;21157;-80
2022/05/17 05:27:22;;;;;;;16.17;11.05;;;;;;;22.52;50.07;100794.25;1717636;81;21096;-81
2022/05/17 05:29:58;;;;;;;15.38;9.25;;;;;;;22.45;50.06;100793.92;1709152;82;21610;-80
2022/05/17 05:32:23;;;;;;;14.35;10.25;;;;;;;22.43;50.18;100799.58;1687140;82;21122;-80
2022/05/17 05:34:49;;;;;;;17.17;8.93;;;;;;;22.42;50.24;100789.05;1705175;82;21582;-81
2022/05/17 05:37:16;;;;;;;12.80;8.13;;;;;;;22.42;50.22;100789.63;1707131;82;21069;-81
2022/05/17 05:39:42;;;;;;;15.25;8.35;;;;;;;22.44;50.20;100788.73;1709487;82;21071;-81
2022/05/17 05:42:08;;;;;;;9.48;7.65;;;;;;;22.44;50.19;100790.13;1697430;83;21516;-79
2022/05/17 05:44:35;;;;;;;14.23;8.55;;;;;;;22.44;50.20;100784.58;1699557;82;21091;-81
2022/05/17 05:47:02;;;;;;;13.83;9.40;;;;;;;22.45;50.19;100787.00;1706824;82;21553;-82
2022/05/17 05:49:35;;;;;;;9.98;8.08;;;;;;;22.48;50.16;100791.91;1703595;82;21283;-79
2022/05/17 05:52:02;;;;;;;23.75;9.08;;;;;;;22.47;50.24;100789.45;1698096;82;21147;-82
2022/05/17 05:54:30;;;;;;;17.35;7.70;;;;;;;22.45;50.40;100788.98;1695019;82;21103;-82
2022/05/17 05:57:03;;;;;;;11.38;7.05;;;;;;;22.44;50.51;100794.28;1697541;82;21032;-80
2022/05/17 05:59:29;;;;;;;32.98;8.58;;;;;;;22.43;50.65;100792.64;1699346;82;21842;-79
2022/05/17 06:01:58;;;;;;;39.33;7.70;;;;;;;22.43;50.67;100800.96;1702118;82;21037;-80
2022/05/17 06:04:27;;;;;;;18.25;7.33;;;;;;;22.43;50.82;100793.46;1710143;82;21084;-79
2022/05/17 06:06:56;;;;;;;20.30;6.12;;;;;;;22.42;50.93;100789.05;1706082;82;21515;-77
2022/05/17 06:09:24;;;;;;;19.27;7.92;;;;;;;22.42;51.01;100792.39;1630935;86;21634;-79
2022/05/17 06:11:50;;;;;;;20.12;6.95;;;;;;;22.45;51.08;100793.14;1705149;82;21379;-81
2022/05/17 06:14:16;;;;;;;24.15;7.22;;;;;;;22.47;51.28;100796.38;1711382;82;21115;-82
2022/05/17 06:16:43;;;;;;;21.42;6.53;;;;;;;22.50;51.44;100796.53;1721716;82;21075;-81
2022/05/17 06:19:09;;;;;;;17.57;6.45;;;;;;;22.53;51.42;100797.25;1712706;82;21529;-79
2022/05/17 06:21:36;;;;;;;15.78;5.80;;;;;;;22.56;51.42;100793.02;1708057;82;21124;-80
2022/05/17 06:24:09;;;;;;;22.15;6.58;;;;;;;22.57;51.48;100791.31;1689024;83;21610;-80
2022/05/17 06:26:36;;;;;;;13.25;5.33;;;;;;;22.60;51.52;100795.37;1701832;82;21571;-76
2022/05/17 06:29:03;;;;;;;14.90;5.83;;;;;;;22.62;51.55;100792.49;1711567;82;21080;-80
2022/05/17 06:31:30;;;;;;;16.95;5.58;;;;;;;22.64;51.61;100792.98;1703477;82;21328;-80
2022/05/17 06:33:57;;;;;;;17.60;5.62;;;;;;;22.67;51.60;100800.64;1678431;83;21158;-80
2022/05/17 06:36:28;;;;;;;17.37;5.47;;;;;;;22.70;51.60;100797.82;1676969;83;21190;-80
2022/05/17 06:38:54;;;;;;;16.10;6.25;;;;;;;22.72;51.58;100796.91;1678204;83;21118;-78
2022/05/17 06:41:22;;;;;;;15.53;5.83;;;;;;;22.73;51.57;100794.38;1672189;83;21091;-78
2022/05/17 06:43:50;;;;;;;12.15;5.58;;;;;;;22.75;51.56;100798.43;1670987;83;21082;-80
2022/05/17 06:46:17;;;;;;;12.53;5.33;;;;;;;22.75;51.46;100797.05;1653967;83;46469;-79
2022/05/17 06:48:44;;;;;;;20.85;5.85;;;;;;;22.79;51.40;100806.11;1673323;83;22205;-81
2022/05/17 06:51:10;;;;;;;18.77;6.15;;;;;;;22.78;51.22;100803.91;1674224;83;21611;-82
2022/05/17 06:53:37;;;;;;;31.33;6.37;;;;;;;22.77;51.08;100789.79;1679691;83;21721;-82
2022/05/17 06:56:05;;;;;;;15.75;4.85;;;;;;;22.75;51.03;100799.81;1672673;83;21685;-85
2022/05/17 06:58:32;;;;;;;29.80;5.83;;;;;;;22.78;51.00;100805.86;1667509;83;21036;-85
2022/05/17 07:00:58;;;;;;;18.32;6.33;;;;;;;22.79;51.00;100805.51;1676974;83;21330;-81
2022/05/17 07:03:24;;;;;;;17.45;5.53;;;;;;;22.81;51.05;100803.23;1664925;84;21078;-80
2022/05/17 07:05:51;;;;;;;17.10;6.55;;;;;;;22.83;51.11;100805.69;1672494;83;21132;-79
2022/05/17 07:08:18;;;;;;;16.12;6.65;;;;;;;22.84;51.01;100803.13;1650542;84;21129;-81
2022/05/17 07:13:29;;;;;;;13.05;5.50;;;;;;;22.86;51.05;100803.05;1681693;83;22443;-81
2022/05/17 07:16:02;;;;;;;17.92;6.22;;;;;;;22.91;51.05;100808.99;1686470;83;21594;-80
2022/05/17 07:18:29;;;;;;;9.40;5.30;;;;;;;22.92;51.01;100805.05;1676422;83;21120;-81
2022/05/17 07:20:56;;;;;;;7.58;5.75;;;;;;;22.95;50.99;100804.41;1682439;83;22227;-81
2022/05/17 07:23:24;;;;;;;9.43;5.15;;;;;;;22.97;50.94;100802.09;1692257;83;21148;-79
2022/05/17 07:25:53;;;;;;;16.13;5.80;;;;;;;22.99;50.93;100802.59;1688648;82;21666;-76
2022/05/17 07:28:22;;;;;;;10.50;5.87;;;;;;;23.01;50.90;100807.22;1688968;82;21413;-80
2022/05/17 07:30:48;;;;;;;9.03;5.35;;;;;;;23.03;50.84;100811.30;1686337;83;21600;-78
2022/05/17 07:33:15;;;;;;;9.20;5.12;;;;;;;23.04;50.76;100801.02;1699106;82;21078;-78
2022/05/17 07:35:43;;;;;;;18.25;5.80;;;;;;;23.06;50.75;100797.31;1710324;82;21926;-80
2022/05/17 07:38:09;;;;;;;12.70;5.50;;;;;;;23.07;50.71;100797.56;1716751;82;21375;-85
2022/05/17 07:40:36;;;;;;;11.95;5.20;;;;;;;23.09;50.67;100801.62;1715943;82;21076;-86
2022/05/17 07:43:02;;;;;;;10.65;5.35;;;;;;;23.11;50.58;100796.56;1718431;82;21456;-83
2022/05/17 07:45:40;;;;;;;10.13;5.37;;;;;;;23.13;50.51;100794.25;1706804;82;21145;-83
2022/05/17 07:48:13;;;;;;;14.45;5.40;;;;;;;23.14;50.49;100794.50;1709784;82;21139;-83
2022/05/17 07:50:39;;;;;;;19.17;5.95;;;;;;;23.16;50.51;100799.16;1703669;82;21099;-84
2022/05/17 07:53:15;;;;;;;7.67;4.67;;;;;;;23.18;50.46;100796.84;1707457;82;21579;-85
2022/05/17 07:55:42;;;;;;;16.82;5.35;;;;;;;23.21;50.26;100792.60;1708914;82;21095;-84
2022/05/17 07:58:08;;;;;;;40.60;6.70;;;;;;;23.21;50.28;100790.61;1705806;82;21705;-86
2022/05/17 08:00:35;;;;;;;56.95;7.17;;;;;;;23.24;50.26;100786.37;1704824;82;21057;-82
2022/05/17 08:03:10;;;;;;;50.10;6.87;;;;;;;23.26;50.33;100780.46;1710140;82;21737;-84
2022/05/17 08:05:38;;;;;;;10.90;5.62;;;;;;;23.28;50.42;100783.73;1705057;81;21110;-81
2022/05/17 08:08:05;;;;;;;13.78;4.92;;;;;;;23.28;50.30;100778.99;1682514;83;21092;-84
2022/05/17 08:10:31;;;;;;;12.85;4.78;;;;;;;23.31;50.18;100779.70;1709472;81;21048;-84
2022/05/17 08:12:58;;;;;;;16.60;4.95;;;;;;;23.32;50.08;100777.73;1658763;84;21103;-80
2022/05/17 08:15:30;;;;;;;15.03;5.28;;;;;;;23.34;50.02;100782.39;1663217;84;21219;-78
2022/05/17 08:17:57;;;;;;;9.95;4.53;;;;;;;23.35;50.12;100775.09;1662234;84;21368;-80
2022/05/17 08:20:24;;;;;;;10.93;4.78;;;;;;;23.35;50.19;100772.32;1659345;84;21077;-81
2022/05/17 08:22:50;;;;;;;10.53;4.67;;;;;;;23.38;50.08;100774.41;1653431;84;21149;-79
2022/05/17 08:28:07;;;;;;;14.58;4.80;;;;;;;23.41;49.81;100769.60;1665716;84;21096;-80
2022/05/17 08:30:35;;;;;;;10.85;5.28;;;;;;;23.44;49.69;100775.07;1654485;84;20999;-76
2022/05/17 08:33:17;;;;;;;10.43;4.97;;;;;;;23.46;49.58;100765.27;1660850;84;20988;-81
2022/05/17 08:35:54;;;;;;;11.10;5.40;;;;;;;23.47;49.50;100764.09;1658632;84;21505;-80
2022/05/17 08:38:29;;;;;;;18.48;5.37;;;;;;;23.49;49.53;100765.98;1655976;84;21383;-78
2022/05/17 08:41:12;;;;;;;10.75;5.25;;;;;;;23.51;49.48;100765.62;1650171;84;21116;-79
2022/05/17 08:43:54;;;;;;;18.02;5.20;;;;;;;23.52;49.47;100762.52;1655688;84;21122;-79
2022/05/17 08:46:53;;;;;;;22.58;5.05;;;;;;;23.55;49.30;100766.59;1667947;84;21071;-76
2022/05/17 08:49:30;;;;;;;23.70;5.25;;;;;;;23.56;49.25;100762.64;1656306;84;21274;-77
2022/05/17 08:52:09;;;;;;;16.57;5.58;;;;;;;23.58;49.27;100761.74;1636823;84;21105;-80
2022/05/17 08:54:56;;;;;;;14.20;4.80;;;;;;;23.58;49.17;100759.78;1656504;84;22011;-80
2022/05/17 08:57:48;;;;;;;14.18;4.83;;;;;;;23.58;49.25;100758.39;1660841;84;21099;-80
2022/05/17 09:00:22;;;;;;;13.00;4.37;;;;;;;23.59;49.16;100748.10;1629366;84;21538;-77
2022/05/17 09:03:06;;;;;;;10.18;4.53;;;;;;;23.60;49.16;100749.13;1660424;84;21068;-76
2022/05/17 09:05:39;;;;;;;11.38;4.45;;;;;;;23.59;48.95;100741.95;1661655;84;21479;-77
2022/05/17 09:08:41;;;;;;;6.83;4.37;;;;;;;23.62;48.71;100749.63;1670088;83;22012;-76
2022/05/17 09:11:23;;;;;;;7.35;4.22;;;;;;;23.66;48.43;100742.80;1703522;82;21567;-77
2022/05/17 09:14:05;;;;;;;14.83;4.72;;;;;;;23.67;48.42;100743.05;1693029;82;21526;-74
2022/05/17 09:16:45;;;;;;;12.58;4.70;;;;;;;23.68;48.42;100732.75;1707326;82;21673;-74
2022/05/17 09:19:12;;;;;;;13.03;4.28;;;;;;;23.68;48.41;100732.75;1706778;82;21433;-74
2022/05/17 09:21:42;;;;;;;10.18;4.42;;;;;;;23.73;48.19;100724.19;1712229;82;21104;-76
2022/05/17 09:24:14;;;;;;;9.70;4.58;;;;;;;23.78;48.05;100726.77;1712680;81;21715;-75
2022/05/17 09:26:51;;;;;;;11.83;4.70;;;;;;;23.83;47.88;100727.38;1711387;82;21037;-78
2022/05/17 09:29:24;;;;;;;10.63;4.60;;;;;;;23.85;47.74;100731.20;1690964;82;21553;-76
2022/05/17 09:31:54;;;;;;;9.73;4.00;;;;;;;23.84;47.68;100722.06;1709657;83;21104;-78
2022/05/17 09:34:34;;;;;;;11.85;4.20;;;;;;;23.85;47.59;100723.66;1672372;82;21324;-77
2022/05/17 09:37:18;;;;;;;8.78;4.40;;;;;;;23.86;47.48;100721.70;1677884;83;21626;-76
2022/05/17 09:39:51;;;;;;;5.72;4.15;;;;;;;23.87;47.31;100710.83;1687242;82;21115;-74
2022/05/17 09:42:33;;;;;;;7.87;4.08;;;;;;;23.88;47.25;100699.95;1703212;82;22550;-74
2022/05/17 09:45:02;;;;;;;10.28;4.78;;;;;;;23.91;47.11;100702.04;1703650;83;21229;-74
2022/05/17 09:47:35;;;;;;;7.80;4.15;;;;;;;23.94;46.95;100699.38;1687154;83;21187;-76
2022/05/17 09:53:04;;;;;;;13.05;4.25;;;;;;;23.96;46.64;100698.48;1685763;82;21161;-79
2022/05/17 09:55:32;;;;;;;8.70;4.50;;;;;;;23.97;46.81;100695.13;1705845;82;21219;-75
2022/05/17 09:58:08;;;;;;;22.32;4.22;;;;;;;23.98;47.62;100689.78;1695115;83;21064;-75
2022/05/17 10:00:50;;;;;;;11.28;4.62;;;;;;;24.01;47.85;100690.50;1702557;82;21167;-76
2022/05/17 10:03:36;;;;;;;11.38;4.60;;;;;;;24.04;47.38;100681.47;1704715;82;21080;-77
2022/05/17 10:06:39;;;;;;;12.65;4.30;;;;;;;24.09;47.02;100679.29;1638089;85;21194;-78
2022/05/17 10:09:13;;;;;;;17.27;4.72;;;;;;;24.10;46.87;100684.28;1660456;84;21378;-75
2022/05/17 10:12:17;;;;;;;17.50;4.53;;;;;;;24.06;47.06;100674.40;1700450;82;21104;-79
2022/05/17 10:14:49;;;;;;;13.05;4.15;;;;;;;24.04;47.05;100679.50;1696659;82;21314;-74
2022/05/17 10:17:35;;;;;;;10.48;4.22;;;;;;;24.02;46.83;100678.20;1646866;84;21713;-74
2022/05/17 10:20:07;;;;;;;10.40;4.05;;;;;;;23.99;46.60;100676.94;1682301;83;21142;-74
2022/05/17 10:23:02;;;;;;;11.95;4.00;;;;;;;23.96;46.77;100669.88;1666710;85;21355;-76
2022/05/17 10:25:51;;;;;;;5.22;3.98;;;;;;;23.94;47.02;100666.61;1693849;82;21151;-76
2022/05/17 10:28:35;;;;;;;8.18;4.28;;;;;;;23.92;47.11;100659.21;1684891;82;21158;-73
2022/05/17 10:31:33;;;;;;;8.68;4.15;;;;;;;23.89;47.30;100657.13;1695000;82;21076;-76
2022/05/17 10:34:43;;;;;;;12.73;4.22;;;;;;;23.87;47.45;100663.02;1706603;82;21151;-75
2022/05/17 10:37:19;;;;;;;5.78;3.92;;;;;;;23.85;47.32;100661.75;1716390;82;21025;-77
2022/05/17 10:40:06;;;;;;;8.35;3.95;;;;;;;23.84;47.03;100652.60;1714668;82;21130;-77
2022/05/17 10:42:33;;;;;;;8.38;3.87;;;;;;;23.86;46.54;100653.05;1716903;81;21124;-84
2022/05/17 10:45:00;;;;;;;10.18;4.62;;;;;;;23.91;46.20;100642.30;1722327;81;21091;-79
2022/05/17 10:47:59;;;;;;;6.70;3.65;;;;;;;23.96;45.96;100642.08;1725661;82;21071;-78
2022/05/17 10:50:58;;;;;;;10.15;3.25;;;;;;;24.00;45.65;100641.63;1720119;81;21140;-77
2022/05/17 10:53:42;;;;;;;6.62;3.37;;;;;;;24.06;45.24;100636.87;1707919;81;21627;-78
2022/05/17 10:56:22;;;;;;;16.05;3.90;;;;;;;24.08;45.29;100632.38;1716515;81;21219;-77
2022/05/17 10:59:15;;;;;;;14.13;3.77;;;;;;;24.08;45.33;100625.42;1711585;81;21538;-79
2022/05/17 11:01:56;;;;;;;8.28;3.95;;;;;;;24.09;45.47;100626.48;1713986;83;21061;-77
2022/05/17 11:05:02;;;;;;;11.78;4.17;;;;;;;24.12;45.29;100627.75;1710285;82;21103;-76
2022/05/17 11:07:58;;;;;;;15.93;4.00;;;;;;;24.13;45.50;100621.04;1656560;82;21084;-78
2022/05/17 11:10:51;;;;;;;7.17;3.95;;;;;;;24.12;45.57;100617.44;1717727;82;21695;-78
2022/05/17 11:13:32;;;;;;;8.65;4.20;;;;;;;24.11;45.67;100613.03;1714103;81;21111;-78
2022/05/17 11:16:12;;;;;;;7.83;4.30;;;;;;;24.10;45.86;100614.79;1714108;81;21091;-81
2022/05/17 11:18:51;;;;;;;;;;;;;;;24.06;46.20;100601.35;1729107;81;21188;-77
2022/05/17 11:21:26;;;;;;;7.20;3.98;;;;;;;24.03;46.60;100608.97;1714021;82;20185;-76
2022/05/17 11:24:48;;;;;;;11.05;4.08;;;;;;;24.00;46.55;100599.94;1711313;82;21260;-76
2022/05/17 11:27:46;;;;;;;9.68;3.85;;;;;;;23.97;46.75;100595.09;1720098;82;22366;-76
2022/05/17 11:30:20;;;;;;;6.50;3.72;;;;;;;23.96;46.86;100592.06;1714499;82;21107;-78
2022/05/17 11:33:12;;;;;;;7.15;4.03;;;;;;;23.94;46.87;100587.42;1715376;82;21106;-77
2022/05/17 11:35:51;;;;;;;10.60;3.95;;;;;;;23.93;46.83;100581.05;1671460;82;21135;-75
2022/05/17 11:38:38;;;;;;;6.70;3.70;;;;;;;23.92;46.79;100580.84;1679837;82;22077;-76
2022/05/17 11:41:21;;;;;;;5.85;3.50;;;;;;;23.92;46.71;100582.23;1716871;82;21562;-77
2022/05/17 11:44:07;;;;;;;6.00;3.33;;;;;;;23.91;46.49;100576.43;1719430;81;21900;-78
2022/05/17 11:46:40;;;;;;;6.78;3.60;;;;;;;23.91;46.70;100568.09;1716046;82;21179;-76
2022/05/17 11:49:21;;;;;;;9.63;3.60;;;;;;;23.91;46.84;100566.70;1719496;82;21080;-77
2022/05/17 11:52:08;;;;;;;7.97;3.27;;;;;;;23.91;46.96;100563.11;1708492;82;21218;-76
2022/05/17 11:54:48;;;;;;;19.75;3.72;;;;;;;23.92;47.23;100556.41;1699074;82;21310;-76